Time;durP1;ratioP1;P1;durP2;ratioP2;P2;SDS_P1;SDS_P2;PMS_P1;PMS_P2;Temp;Humidity;BMP_temperature;BMP_pressure;BME280_temperature;BME280_humidity;BME280_pressure;Samples;Min_cycle;Max_cycle;Signal;HPM_P1;HPM_P2
2023/12/17 00:00:12;;;;;;;21.57;18.50;;;9.40;1.00;;;;;;5167281;27;21305;-77
2023/12/17 00:02:40;;;;;;;21.10;16.90;;;9.40;1.00;;;;;;5166545;27;20470;-78
2023/12/17 00:05:08;;;;;;;19.50;16.80;;;9.50;1.00;;;;;;5190691;27;20474;-78
2023/12/17 00:07:36;;;;;;;21.80;18.10;;;9.50;1.00;;;;;;5190455;27;20467;-78
2023/12/17 00:10:06;;;;;;;21.43;18.77;;;9.50;1.00;;;;;;5196697;27;20499;-78
2023/12/17 00:12:33;;;;;;;23.73;18.97;;;9.50;1.00;;;;;;5192130;27;20462;-78
2023/12/17 00:15:02;;;;;;;22.20;17.80;;;9.50;1.00;;;;;;5194419;27;20462;-79
2023/12/17 00:17:31;;;;;;;23.20;17.17;;;9.50;1.00;;;;;;5190839;27;20450;-79
2023/12/17 00:20:03;;;;;;;21.50;17.90;;;9.50;1.00;;;;;;5188582;27;20458;-79
2023/12/17 00:22:30;;;;;;;20.67;17.80;;;9.50;1.00;;;;;;5194141;27;20553;-78
2023/12/17 00:24:58;;;;;;;23.10;18.20;;;9.50;1.00;;;;;;5193728;27;20456;-79
2023/12/17 00:27:27;;;;;;;20.10;17.50;;;9.50;1.00;;;;;;5190711;27;20458;-78
2023/12/17 00:29:54;;;;;;;20.90;18.17;;;9.50;1.00;;;;;;5187163;27;21222;-78
2023/12/17 00:32:21;;;;;;;22.13;18.53;;;9.40;1.00;;;;;;5187762;27;20510;-80
2023/12/17 00:34:48;;;;;;;22.23;18.63;;;9.40;1.00;;;;;;5189073;27;20533;-80
2023/12/17 00:37:15;;;;;;;20.93;17.20;;;9.50;1.00;;;;;;5193052;27;20462;-80
2023/12/17 00:39:43;;;;;;;20.37;17.27;;;9.50;1.00;;;;;;5193227;27;20495;-78
2023/12/17 00:42:12;;;;;;;20.10;16.77;;;9.50;1.00;;;;;;5192225;27;20462;-80
2023/12/17 00:44:39;;;;;;;20.07;16.00;;;9.40;1.00;;;;;;5189019;27;20478;-78
2023/12/17 00:47:06;;;;;;;27.03;16.90;;;9.40;1.00;;;;;;5192456;27;20947;-79
2023/12/17 00:49:33;;;;;;;25.90;17.67;;;9.40;1.00;;;;;;5192054;27;20499;-78
2023/12/17 00:52:01;;;;;;;25.03;18.53;;;9.40;1.00;;;;;;5192379;27;20493;-78
2023/12/17 00:54:28;;;;;;;20.63;16.97;;;9.50;1.00;;;;;;5191405;27;20458;-78
2023/12/17 00:56:55;;;;;;;20.53;17.30;;;9.50;1.00;;;;;;5189194;27;21318;-79
2023/12/17 00:59:23;;;;;;;20.63;16.33;;;9.50;1.00;;;;;;5188985;27;20491;-80
2023/12/17 01:01:51;;;;;;;20.90;16.50;;;9.50;1.00;;;;;;5189878;27;20467;-78
2023/12/17 01:04:19;;;;;;;21.67;15.90;;;9.50;1.00;;;;;;5191298;27;20474;-81
2023/12/17 01:06:47;;;;;;;19.27;17.17;;;9.50;1.00;;;;;;5190332;27;20571;-80
2023/12/17 01:09:15;;;;;;;21.10;16.50;;;9.50;1.00;;;;;;5168668;27;20460;-81
2023/12/17 01:11:45;;;;;;;20.83;17.50;;;9.50;1.00;;;;;;5189323;27;20470;-81
2023/12/17 01:14:13;;;;;;;22.83;17.50;;;9.60;1.00;;;;;;5189066;27;21180;-80
2023/12/17 01:16:42;;;;;;;19.63;16.83;;;9.60;1.00;;;;;;5189041;27;20487;-79
2023/12/17 01:19:09;;;;;;;22.63;18.43;;;9.60;1.00;;;;;;5190596;27;20965;-81
2023/12/17 01:21:36;;;;;;;20.30;16.53;;;9.50;1.00;;;;;;5189357;27;21365;-81
2023/12/17 01:24:03;;;;;;;18.53;15.47;;;9.60;1.00;;;;;;5189424;27;20473;-81
2023/12/17 01:26:30;;;;;;;19.87;17.50;;;9.60;1.00;;;;;;5189890;27;20458;-81
2023/12/17 01:28:57;;;;;;;21.83;16.30;;;9.50;1.00;;;;;;5165161;27;20526;-81
2023/12/17 01:31:24;;;;;;;21.73;17.20;;;9.50;1.00;;;;;;5189539;27;20497;-81
2023/12/17 01:33:53;;;;;;;20.37;17.20;;;9.60;1.00;;;;;;5185788;27;20497;-78
2023/12/17 01:36:21;;;;;;;20.60;17.50;;;9.50;1.00;;;;;;5188468;27;20478;-80
2023/12/17 01:38:48;;;;;;;19.70;17.57;;;9.50;1.00;;;;;;5189089;27;20574;-81
2023/12/17 01:41:15;;;;;;;24.47;18.00;;;9.50;1.00;;;;;;5189066;27;20617;-81
2023/12/17 01:43:43;;;;;;;21.80;17.13;;;9.50;1.00;;;;;;5188017;27;20882;-80
2023/12/17 01:46:11;;;;;;;23.20;17.80;;;9.50;1.00;;;;;;5188794;27;20467;-80
2023/12/17 01:48:40;;;;;;;20.10;17.70;;;9.50;1.00;;;;;;5187926;27;20450;-81
2023/12/17 01:51:11;;;;;;;21.20;17.93;;;9.50;1.00;;;;;;5189371;27;20986;-80
2023/12/17 01:53:48;;;;;;;21.87;16.73;;;9.60;1.00;;;;;;5188042;27;20454;-80
2023/12/17 01:56:19;;;;;;;21.87;16.50;;;9.60;1.00;;;;;;5186337;27;20511;-81
2023/12/17 01:58:48;;;;;;;21.83;18.17;;;9.60;1.00;;;;;;5185908;27;20455;-77
2023/12/17 02:01:15;;;;;;;24.63;19.60;;;9.60;1.00;;;;;;5189621;27;21025;-82
2023/12/17 02:03:43;;;;;;;24.90;19.07;;;9.50;1.00;;;;;;5189680;27;20475;-81
2023/12/17 02:06:13;;;;;;;20.57;17.87;;;9.50;1.00;;;;;;5188369;27;20454;-82
2023/12/17 02:08:41;;;;;;;20.47;18.10;;;9.50;1.00;;;;;;5188173;27;20541;-79
2023/12/17 02:11:08;;;;;;;24.03;17.90;;;9.50;1.00;;;;;;5188867;27;20860;-78
2023/12/17 02:13:35;;;;;;;22.30;19.20;;;9.60;1.00;;;;;;5188281;27;20442;-77
2023/12/17 02:16:04;;;;;;;21.63;17.17;;;9.60;1.00;;;;;;5169912;27;20532;-79
2023/12/17 02:18:31;;;;;;;20.60;17.17;;;9.60;1.00;;;;;;5188481;27;20442;-78
2023/12/17 02:20:58;;;;;;;22.37;17.83;;;9.70;1.00;;;;;;5190921;27;20454;-78
2023/12/17 02:23:27;;;;;;;20.60;16.80;;;9.70;1.00;;;;;;5195788;27;20430;-78
2023/12/17 02:25:54;;;;;;;21.63;17.50;;;9.60;1.00;;;;;;5160952;27;20520;-78
2023/12/17 02:28:22;;;;;;;22.00;18.43;;;9.60;1.00;;;;;;5190427;27;20468;-78
2023/12/17 02:30:49;;;;;;;19.77;17.17;;;9.60;1.00;;;;;;5171235;27;20466;-79
2023/12/17 02:33:16;;;;;;;22.90;17.60;;;9.70;1.00;;;;;;5192413;27;20477;-79
2023/12/17 02:35:45;;;;;;;21.50;17.87;;;9.70;1.00;;;;;;5199266;27;20454;-79
2023/12/17 02:38:12;;;;;;;18.80;16.80;;;9.70;1.00;;;;;;5192426;27;20512;-79
2023/12/17 02:40:41;;;;;;;24.67;17.43;;;9.80;1.00;;;;;;5194002;27;20470;-79
2023/12/17 02:43:08;;;;;;;20.70;17.60;;;9.70;1.00;;;;;;5195765;27;20461;-80
2023/12/17 02:45:35;;;;;;;24.17;17.83;;;9.70;1.00;;;;;;5194803;27;20466;-78
2023/12/17 02:48:02;;;;;;;20.50;18.17;;;9.70;1.00;;;;;;5194821;27;20529;-79
2023/12/17 02:50:32;;;;;;;23.60;16.97;;;9.70;1.00;;;;;;5189403;27;20501;-79
2023/12/17 02:53:01;;;;;;;18.17;15.97;;;9.80;1.00;;;;;;5191219;27;20449;-78
2023/12/17 02:55:28;;;;;;;21.77;17.23;;;9.70;1.00;;;;;;5194552;27;20520;-75
2023/12/17 02:58:01;;;;;;;20.87;17.03;;;9.70;1.00;;;;;;5191528;27;20447;-76
2023/12/17 03:00:29;;;;;;;21.27;16.23;;;9.70;1.00;;;;;;5192855;27;20457;-76
2023/12/17 03:02:58;;;;;;;20.50;16.60;;;9.70;1.00;;;;;;5191884;27;20447;-75
2023/12/17 03:05:25;;;;;;;20.70;16.73;;;9.70;1.00;;;;;;5188911;27;20451;-77
2023/12/17 03:07:53;;;;;;;19.47;17.33;;;9.80;1.00;;;;;;5189568;27;20444;-76
2023/12/17 03:10:21;;;;;;;25.03;17.03;;;9.70;1.00;;;;;;5190981;27;20466;-75
2023/12/17 03:12:49;;;;;;;19.73;17.00;;;9.70;1.00;;;;;;5189945;27;20590;-76
2023/12/17 03:15:18;;;;;;;20.70;17.73;;;9.70;1.00;;;;;;5189537;27;20449;-76
2023/12/17 03:17:46;;;;;;;18.87;16.87;;;9.70;1.00;;;;;;5189210;27;20446;-76
2023/12/17 03:20:14;;;;;;;20.87;18.33;;;9.70;1.00;;;;;;5192029;27;20462;-76
2023/12/17 03:22:41;;;;;;;20.27;16.87;;;9.70;1.00;;;;;;5188025;27;20478;-77
2023/12/17 03:25:09;;;;;;;21.87;16.77;;;9.70;1.00;;;;;;5165980;27;20867;-77
2023/12/17 03:27:36;;;;;;;19.20;16.70;;;9.60;1.00;;;;;;5186440;27;20589;-76
2023/12/17 03:30:04;;;;;;;20.67;17.07;;;9.60;1.00;;;;;;5192609;27;21313;-75
2023/12/17 03:32:32;;;;;;;20.50;16.33;;;9.70;1.00;;;;;;5189607;27;20454;-77
2023/12/17 03:34:59;;;;;;;18.53;15.93;;;9.70;1.00;;;;;;5189296;27;21355;-78
2023/12/17 03:37:26;;;;;;;19.13;16.70;;;9.70;1.00;;;;;;5186888;27;20474;-75
2023/12/17 03:39:56;;;;;;;19.03;15.63;;;9.70;1.00;;;;;;5188833;27;20462;-75
2023/12/17 03:42:23;;;;;;;21.60;16.83;;;9.70;1.00;;;;;;5190366;27;20466;-76
2023/12/17 03:44:50;;;;;;;20.70;16.53;;;9.70;1.00;;;;;;5189756;27;20472;-75
2023/12/17 03:47:18;;;;;;;18.97;16.50;;;9.70;1.00;;;;;;5188816;27;20973;-76
2023/12/17 03:49:47;;;;;;;18.63;16.73;;;9.70;1.00;;;;;;5190926;27;20545;-76
2023/12/17 03:52:14;;;;;;;17.47;15.77;;;9.70;1.00;;;;;;5189864;27;20499;-75
2023/12/17 03:54:41;;;;;;;19.13;15.97;;;9.70;1.00;;;;;;5185732;27;20540;-77
2023/12/17 03:57:08;;;;;;;23.13;16.30;;;9.70;1.00;;;;;;5190525;27;20466;-76
2023/12/17 03:59:37;;;;;;;21.93;17.77;;;9.70;1.00;;;;;;5191502;27;20518;-77
2023/12/17 04:02:05;;;;;;;18.97;16.93;;;9.70;1.00;;;;;;5188371;27;20534;-76
2023/12/17 04:04:32;;;;;;;19.90;17.10;;;9.70;1.00;;;;;;5189190;27;20469;-75
2023/12/17 04:07:00;;;;;;;20.67;15.80;;;9.80;1.00;;;;;;5187811;27;20450;-76
2023/12/17 04:09:27;;;;;;;20.07;16.70;;;9.80;1.00;;;;;;5192199;27;20466;-76
2023/12/17 04:11:55;;;;;;;18.60;15.50;;;9.70;1.00;;;;;;5186293;27;20475;-76
2023/12/17 04:14:25;;;;;;;18.63;16.53;;;9.80;1.00;;;;;;5191282;27;20511;-75
2023/12/17 04:16:51;;;;;;;19.90;17.00;;;9.80;1.00;;;;;;5188857;27;20461;-76
2023/12/17 04:19:18;;;;;;;17.73;15.87;;;9.80;1.00;;;;;;5191982;27;20462;-76
2023/12/17 04:21:45;;;;;;;17.73;15.77;;;9.80;1.00;;;;;;5189058;27;21325;-77
2023/12/17 04:24:14;;;;;;;17.43;15.50;;;9.70;1.00;;;;;;5188288;27;20589;-76
2023/12/17 04:26:41;;;;;;;18.97;16.13;;;9.80;1.00;;;;;;5189939;27;20451;-76
2023/12/17 04:29:08;;;;;;;19.30;17.30;;;9.90;1.00;;;;;;5192802;27;20550;-76
2023/12/17 04:31:35;;;;;;;20.37;16.80;;;9.90;1.00;;;;;;5191375;27;20881;-76
2023/12/17 04:34:02;;;;;;;22.67;18.03;;;9.90;1.00;;;;;;5190733;27;20453;-76
2023/12/17 04:36:29;;;;;;;18.23;16.10;;;9.90;1.00;;;;;;5190289;27;20452;-75
2023/12/17 04:38:57;;;;;;;18.83;16.50;;;9.90;1.00;;;;;;5186506;27;20539;-76
2023/12/17 04:41:25;;;;;;;18.40;16.40;;;9.90;1.00;;;;;;5187040;27;20529;-75
2023/12/17 04:43:52;;;;;;;19.20;17.07;;;9.80;1.00;;;;;;5190003;27;20450;-77
2023/12/17 04:46:19;;;;;;;19.47;16.13;;;9.90;1.00;;;;;;5189482;27;20554;-75
2023/12/17 04:48:46;;;;;;;20.43;17.43;;;9.80;1.00;;;;;;5187622;27;20430;-78
2023/12/17 04:51:15;;;;;;;19.73;16.70;;;9.90;1.00;;;;;;5188365;27;20885;-76
2023/12/17 04:53:42;;;;;;;17.20;15.40;;;9.90;1.00;;;;;;5189648;27;20844;-75
2023/12/17 04:56:11;;;;;;;18.10;16.17;;;9.90;1.00;;;;;;5188371;27;20455;-75
2023/12/17 04:58:40;;;;;;;17.97;16.07;;;9.80;1.00;;;;;;5188949;27;20523;-76
2023/12/17 05:01:10;;;;;;;19.73;15.97;;;9.80;1.00;;;;;;5190161;27;20478;-75
2023/12/17 05:03:38;;;;;;;19.07;17.03;;;9.80;1.00;;;;;;5182081;27;21230;-76
2023/12/17 05:06:06;;;;;;;16.37;14.67;;;9.80;1.00;;;;;;5189399;27;20864;-77
2023/12/17 05:08:33;;;;;;;20.40;16.30;;;9.80;1.00;;;;;;5186642;27;20523;-76
2023/12/17 05:11:00;;;;;;;20.20;17.50;;;9.80;1.00;;;;;;5191959;27;20450;-76
2023/12/17 05:13:28;;;;;;;21.40;16.20;;;9.80;1.00;;;;;;5190183;27;20538;-76
2023/12/17 05:15:56;;;;;;;17.70;15.80;;;9.90;1.00;;;;;;5189577;27;20451;-77
2023/12/17 05:18:23;;;;;;;21.10;16.07;;;9.90;1.00;;;;;;5186949;27;20507;-74
2023/12/17 05:20:50;;;;;;;18.90;16.50;;;9.90;1.00;;;;;;5190319;27;20446;-76
2023/12/17 05:23:18;;;;;;;18.87;15.27;;;9.90;1.00;;;;;;5188976;27;20451;-75
2023/12/17 05:25:44;;;;;;;19.60;16.10;;;9.90;1.00;;;;;;5166793;27;21269;-75
2023/12/17 05:28:12;;;;;;;21.60;17.37;;;9.80;1.00;;;;;;5190290;27;20483;-77
2023/12/17 05:30:39;;;;;;;18.07;15.27;;;9.80;1.00;;;;;;5191571;27;20442;-76
2023/12/17 05:33:10;;;;;;;16.80;15.03;;;9.80;1.00;;;;;;5190470;27;20423;-77
2023/12/17 05:35:37;;;;;;;18.67;15.10;;;9.90;1.00;;;;;;5188955;27;20522;-77
2023/12/17 05:38:04;;;;;;;17.10;15.40;;;9.80;1.00;;;;;;5187539;27;20474;-75
2023/12/17 05:40:32;;;;;;;16.27;14.47;;;9.90;1.00;;;;;;5171142;27;20449;-75
2023/12/17 05:43:01;;;;;;;17.60;14.10;;;9.90;1.00;;;;;;5190372;27;20449;-76
2023/12/17 05:45:30;;;;;;;19.63;16.20;;;9.80;1.00;;;;;;5187198;27;20969;-78
2023/12/17 05:47:57;;;;;;;16.70;14.37;;;9.90;1.00;;;;;;5183618;27;20469;-76
2023/12/17 05:50:27;;;;;;;17.03;14.30;;;9.90;1.00;;;;;;5185740;27;20493;-77
2023/12/17 05:52:54;;;;;;;20.77;16.13;;;9.90;1.00;;;;;;5170200;27;20478;-75
2023/12/17 05:55:22;;;;;;;16.60;14.23;;;9.90;1.00;;;;;;5186888;27;20458;-76
2023/12/17 05:57:50;;;;;;;16.63;14.83;;;9.90;1.00;;;;;;5187622;27;20486;-76
2023/12/17 06:00:19;;;;;;;17.37;13.93;;;9.90;1.00;;;;;;5186712;27;20518;-76
2023/12/17 06:02:46;;;;;;;19.07;15.53;;;9.80;1.00;;;;;;5187042;27;20450;-76
2023/12/17 06:05:13;;;;;;;16.80;14.70;;;9.80;1.00;;;;;;5189740;27;20496;-76
2023/12/17 06:07:42;;;;;;;17.03;14.47;;;9.80;1.00;;;;;;5185000;27;20518;-75
2023/12/17 06:10:10;;;;;;;19.67;15.90;;;9.80;1.00;;;;;;5187575;27;20537;-76
2023/12/17 06:12:38;;;;;;;14.93;13.40;;;9.80;1.00;;;;;;5190107;27;20507;-76
2023/12/17 06:15:07;;;;;;;16.23;13.53;;;9.80;1.00;;;;;;5189008;27;20469;-75
2023/12/17 06:17:34;;;;;;;14.97;13.37;;;9.80;1.00;;;;;;5185090;27;20533;-75
2023/12/17 06:20:03;;;;;;;16.80;13.73;;;9.80;1.00;;;;;;5188534;27;20454;-75
2023/12/17 06:22:33;;;;;;;16.83;14.40;;;9.80;1.00;;;;;;5188413;27;20482;-78
2023/12/17 06:25:01;;;;;;;18.37;14.37;;;9.70;1.00;;;;;;5189876;27;20440;-76
2023/12/17 06:27:30;;;;;;;17.23;13.33;;;9.70;1.00;;;;;;5188286;27;20554;-77
2023/12/17 06:29:57;;;;;;;17.13;14.67;;;9.70;1.00;;;;;;5186031;27;20434;-76
2023/12/17 06:32:25;;;;;;;14.70;13.17;;;9.70;1.00;;;;;;5189487;27;20450;-77
2023/12/17 06:34:52;;;;;;;19.00;13.20;;;9.80;1.00;;;;;;5184617;27;20684;-76
2023/12/17 06:37:19;;;;;;;15.77;13.80;;;9.80;1.00;;;;;;5185076;27;20566;-76
2023/12/17 06:39:46;;;;;;;15.13;13.53;;;9.80;1.00;;;;;;5187812;27;20499;-76
2023/12/17 06:42:16;;;;;;;13.87;12.37;;;9.80;1.00;;;;;;5188951;27;20450;-76
2023/12/17 06:44:43;;;;;;;17.43;14.00;;;9.80;1.00;;;;;;5187213;27;20491;-77
2023/12/17 06:47:10;;;;;;;18.70;14.73;;;9.80;1.00;;;;;;5190026;27;20473;-76
2023/12/17 06:49:38;;;;;;;13.00;11.60;;;9.80;1.00;;;;;;5185439;27;20493;-75
2023/12/17 06:52:05;;;;;;;14.20;12.17;;;9.90;1.00;;;;;;5185156;27;20904;-75
2023/12/17 06:54:40;;;;;;;15.27;13.37;;;9.80;1.00;;;;;;5185922;27;20463;-74
2023/12/17 06:57:07;;;;;;;16.30;11.53;;;9.80;1.00;;;;;;5189117;27;20464;-81
2023/12/17 06:59:37;;;;;;;15.33;12.17;;;9.80;1.00;;;;;;5185828;27;20522;-80
2023/12/17 07:02:04;;;;;;;13.80;12.40;;;9.80;1.00;;;;;;5176317;27;20565;-80
2023/12/17 07:04:31;;;;;;;13.23;11.83;;;9.80;1.00;;;;;;5189562;27;20450;-81
2023/12/17 07:07:01;;;;;;;14.13;11.67;;;9.80;1.00;;;;;;5190162;27;20518;-80
2023/12/17 07:09:28;;;;;;;15.63;11.63;;;9.80;1.00;;;;;;5190617;27;20454;-80
2023/12/17 07:11:55;;;;;;;15.77;12.10;;;9.80;1.00;;;;;;5193073;27;20446;-79
2023/12/17 07:14:24;;;;;;;14.80;11.87;;;9.80;1.00;;;;;;5164157;27;20560;-80
2023/12/17 07:16:52;;;;;;;16.37;11.87;;;9.90;1.00;;;;;;5194557;27;20462;-81
2023/12/17 07:19:20;;;;;;;13.13;10.80;;;9.90;1.00;;;;;;5175853;27;21514;-82
2023/12/17 07:21:47;;;;;;;17.73;13.60;;;9.90;1.00;;;;;;5178775;27;20824;-79
2023/12/17 07:24:14;;;;;;;14.80;12.00;;;9.90;1.00;;;;;;5174514;27;20500;-81
2023/12/17 07:26:41;;;;;;;11.60;10.40;;;10.00;1.00;;;;;;5191366;27;21330;-80
2023/12/17 07:29:07;;;;;;;14.90;12.13;;;10.00;1.00;;;;;;5193208;27;21219;-82
2023/12/17 07:31:34;;;;;;;11.97;10.67;;;10.00;1.00;;;;;;5191590;27;21807;-80
2023/12/17 07:34:05;;;;;;;14.73;12.83;;;10.00;1.00;;;;;;5192901;27;20424;-81
2023/12/17 07:36:32;;;;;;;13.67;11.43;;;10.00;1.00;;;;;;5195178;27;20462;-82
2023/12/17 07:38:59;;;;;;;11.67;10.47;;;10.00;1.00;;;;;;5196326;27;20446;-80
2023/12/17 07:41:31;;;;;;;13.83;12.43;;;10.00;1.00;;;;;;5191717;27;21237;-81
2023/12/17 07:43:58;;;;;;;12.57;11.03;;;10.00;1.00;;;;;;5174608;27;20442;-80
2023/12/17 07:46:25;;;;;;;11.80;10.60;;;10.10;1.00;;;;;;5191879;27;20467;-77
2023/12/17 07:48:52;;;;;;;11.67;10.57;;;10.00;1.00;;;;;;5190726;27;20448;-79
2023/12/17 07:51:21;;;;;;;13.97;11.60;;;10.00;1.00;;;;;;5194946;27;20552;-82
2023/12/17 07:53:48;;;;;;;12.57;10.90;;;10.20;1.00;;;;;;5194846;27;20455;-81
2023/12/17 07:56:16;;;;;;;13.10;11.70;;;10.20;1.00;;;;;;5190713;27;20469;-81
2023/12/17 07:58:45;;;;;;;12.07;10.13;;;10.20;1.00;;;;;;5192661;27;20482;-81
2023/12/17 08:01:13;;;;;;;12.33;10.43;;;10.20;1.00;;;;;;5193563;27;20482;-80
2023/12/17 08:03:41;;;;;;;10.80;9.63;;;10.30;1.00;;;;;;5188011;27;20506;-81
2023/12/17 08:06:08;;;;;;;14.47;10.97;;;10.20;1.00;;;;;;5193107;27;20541;-80
2023/12/17 08:08:37;;;;;;;12.20;9.90;;;10.10;1.00;;;;;;5192939;27;20496;-81
2023/12/17 08:11:05;;;;;;;10.53;9.53;;;10.10;1.00;;;;;;5189579;27;20455;-80
2023/12/17 08:13:33;;;;;;;11.07;9.93;;;10.10;1.00;;;;;;5193999;27;20454;-80
2023/12/17 08:16:00;;;;;;;10.13;9.13;;;10.20;1.00;;;;;;5192390;27;20450;-80
2023/12/17 08:18:28;;;;;;;10.47;9.47;;;10.30;1.00;;;;;;5191418;27;20622;-80
2023/12/17 08:20:58;;;;;;;11.50;8.80;;;10.30;1.00;;;;;;5191490;27;20456;-81
2023/12/17 08:23:27;;;;;;;13.60;10.20;;;10.40;1.00;;;;;;5194586;27;20446;-81
2023/12/17 08:25:55;;;;;;;9.77;8.87;;;10.30;1.00;;;;;;5190217;27;20454;-83
2023/12/17 08:28:22;;;;;;;12.10;8.60;;;10.30;1.00;;;;;;5192689;27;20962;-80
2023/12/17 08:30:49;;;;;;;9.93;8.90;;;10.30;1.00;;;;;;5192482;27;20545;-81
2023/12/17 08:33:17;;;;;;;10.60;9.60;;;10.30;1.00;;;;;;5194620;27;20450;-82
2023/12/17 08:35:47;;;;;;;10.90;9.87;;;10.30;1.00;;;;;;5188845;27;20470;-79
2023/12/17 08:38:14;;;;;;;11.67;9.60;;;10.30;1.00;;;;;;5189616;27;21205;-78
2023/12/17 08:40:46;;;;;;;11.63;9.87;;;10.30;1.00;;;;;;5191305;27;20459;-78
2023/12/17 08:43:14;;;;;;;10.63;9.63;;;10.30;1.00;;;;;;5191516;27;20867;-77
2023/12/17 08:45:41;;;;;;;11.27;9.60;;;10.40;1.00;;;;;;5187830;27;20470;-77
2023/12/17 08:48:08;;;;;;;10.67;8.90;;;10.40;1.00;;;;;;5190010;27;20454;-77
2023/12/17 08:50:35;;;;;;;10.70;9.60;;;10.30;1.00;;;;;;5191425;27;20454;-78
2023/12/17 08:53:09;;;;;;;10.80;9.33;;;10.30;1.00;;;;;;5188979;27;20456;-79
2023/12/17 08:55:37;;;;;;;10.10;8.80;;;10.30;1.00;;;;;;5187054;27;20538;-79
2023/12/17 08:58:04;;;;;;;10.13;9.07;;;10.30;1.00;;;;;;5191913;27;21029;-78
2023/12/17 09:00:32;;;;;;;10.20;9.20;;;10.30;1.00;;;;;;5193349;27;20530;-77
2023/12/17 09:02:59;;;;;;;11.30;10.10;;;10.30;1.00;;;;;;5188632;27;20447;-79
2023/12/17 09:05:26;;;;;;;10.00;8.97;;;10.20;1.00;;;;;;5192075;27;20479;-80
2023/12/17 09:07:54;;;;;;;10.90;9.57;;;10.20;1.00;;;;;;5185418;27;20483;-78
2023/12/17 09:10:24;;;;;;;9.10;8.30;;;10.30;1.00;;;;;;5170916;27;20507;-78
2023/12/17 09:12:51;;;;;;;10.47;8.67;;;10.30;1.00;;;;;;5170383;27;20542;-78
2023/12/17 09:15:18;;;;;;;10.50;9.50;;;10.30;1.00;;;;;;5171813;27;21228;-79
2023/12/17 09:17:46;;;;;;;10.80;9.50;;;10.30;1.00;;;;;;5186862;27;20473;-78
2023/12/17 09:20:14;;;;;;;10.00;9.00;;;10.30;1.00;;;;;;5187126;27;20450;-78
2023/12/17 09:22:41;;;;;;;11.47;8.97;;;10.40;1.00;;;;;;5189988;27;20442;-79
2023/12/17 09:25:09;;;;;;;8.97;8.10;;;10.50;1.00;;;;;;5186095;27;20462;-76
2023/12/17 09:27:36;;;;;;;9.87;8.77;;;10.50;1.00;;;;;;5186363;27;20542;-78
2023/12/17 09:30:03;;;;;;;10.10;9.10;;;10.60;1.00;;;;;;5186659;27;20537;-78
2023/12/17 09:32:31;;;;;;;9.73;7.90;;;10.60;1.00;;;;;;5188106;27;20446;-78
2023/12/17 09:35:01;;;;;;;9.20;8.40;;;10.60;1.00;;;;;;5181325;27;20495;-78
2023/12/17 09:37:28;;;;;;;9.90;8.90;;;10.60;1.00;;;;;;5191140;27;20479;-78
2023/12/17 09:39:56;;;;;;;8.30;7.50;;;10.60;1.00;;;;;;5187468;27;21021;-78
2023/12/17 09:42:23;;;;;;;9.93;8.77;;;10.60;1.00;;;;;;5188983;27;21201;-78
2023/12/17 09:44:50;;;;;;;9.60;8.70;;;10.60;1.00;;;;;;5187606;27;20454;-78
2023/12/17 09:47:17;;;;;;;8.80;8.00;;;10.50;1.00;;;;;;5189907;27;20442;-78
2023/12/17 09:49:44;;;;;;;8.80;7.90;;;10.50;1.00;;;;;;5180866;27;20542;-78
2023/12/17 09:52:13;;;;;;;10.33;9.33;;;10.50;1.00;;;;;;5180605;27;20519;-78
2023/12/17 09:54:41;;;;;;;9.37;8.40;;;10.50;1.00;;;;;;5180893;27;20468;-77
2023/12/17 09:57:09;;;;;;;10.70;9.60;;;10.50;1.00;;;;;;5184646;27;20901;-77
2023/12/17 09:59:35;;;;;;;9.90;8.90;;;10.50;1.00;;;;;;5188759;27;20826;-78
2023/12/17 10:02:02;;;;;;;9.33;8.43;;;10.50;1.00;;;;;;5186933;27;20495;-78
2023/12/17 10:04:30;;;;;;;8.10;7.40;;;10.60;1.00;;;;;;5187106;27;20462;-77
2023/12/17 10:06:57;;;;;;;7.57;6.87;;;10.60;1.00;;;;;;5187841;27;20481;-77
2023/12/17 10:09:25;;;;;;;10.73;8.90;;;10.50;1.00;;;;;;5187022;27;20958;-78
2023/12/17 10:11:52;;;;;;;8.67;7.87;;;10.50;1.00;;;;;;5188693;27;20526;-77
2023/12/17 10:14:23;;;;;;;8.80;7.90;;;10.50;1.00;;;;;;5187121;27;20498;-78
2023/12/17 10:16:53;;;;;;;8.83;8.03;;;10.50;1.00;;;;;;5189272;27;20524;-78
2023/12/17 10:19:21;;;;;;;8.83;7.93;;;10.60;1.00;;;;;;5187971;27;20453;-78
2023/12/17 10:21:49;;;;;;;9.03;8.13;;;10.60;1.00;;;;;;5187068;27;20450;-79
2023/12/17 10:24:19;;;;;;;8.30;7.50;;;10.60;1.00;;;;;;5185698;27;20473;-78
2023/12/17 10:26:49;;;;;;;8.60;7.70;;;10.50;1.00;;;;;;5189396;27;20474;-77
2023/12/17 10:29:19;;;;;;;9.00;7.70;;;10.50;1.00;;;;;;5188231;27;21430;-78
2023/12/17 10:31:46;;;;;;;8.57;7.77;;;10.50;1.00;;;;;;5187618;27;20453;-80
2023/12/17 10:34:19;;;;;;;8.77;7.90;;;10.60;1.00;;;;;;5177895;27;20461;-79
2023/12/17 10:36:47;;;;;;;9.10;8.00;;;10.50;1.00;;;;;;5189577;27;20442;-81
2023/12/17 10:39:15;;;;;;;8.63;7.77;;;10.50;1.00;;;;;;5162422;27;20545;-82
2023/12/17 10:41:43;;;;;;;8.63;7.83;;;10.50;1.00;;;;;;5188058;27;20454;-80
2023/12/17 10:44:13;;;;;;;8.83;8.03;;;10.50;1.00;;;;;;5187687;27;20673;-80
2023/12/17 10:46:42;;;;;;;8.37;7.57;;;10.60;1.00;;;;;;5193907;27;21249;-80
2023/12/17 10:49:12;;;;;;;8.30;7.50;;;10.60;1.00;;;;;;5189352;27;20570;-80
2023/12/17 10:51:40;;;;;;;9.63;8.33;;;10.70;1.00;;;;;;5192015;27;20562;-79
2023/12/17 10:54:08;;;;;;;8.83;8.03;;;10.70;1.00;;;;;;5194711;27;21037;-81
2023/12/17 10:56:39;;;;;;;8.27;7.47;;;10.60;1.00;;;;;;5193019;27;21073;-79
2023/12/17 10:59:12;;;;;;;8.47;7.57;;;10.70;1.00;;;;;;5193482;27;20961;-80
2023/12/17 11:01:42;;;;;;;11.23;8.70;;;10.70;1.00;;;;;;5190566;27;20446;-80
2023/12/17 11:04:09;;;;;;;9.07;8.20;;;10.80;1.00;;;;;;5192327;27;21261;-80
2023/12/17 11:06:36;;;;;;;8.97;8.10;;;10.70;1.00;;;;;;5189240;27;20437;-80
2023/12/17 11:09:05;;;;;;;8.30;7.50;;;10.70;1.00;;;;;;5189036;27;20454;-81
2023/12/17 11:11:33;;;;;;;8.13;7.33;;;10.70;1.00;;;;;;5190834;27;21260;-80
2023/12/17 11:14:02;;;;;;;9.80;8.80;;;10.70;1.00;;;;;;5162141;27;22442;-80
2023/12/17 11:16:29;;;;;;;8.10;7.40;;;10.70;1.00;;;;;;5190773;27;20485;-82
2023/12/17 11:19:01;;;;;;;8.23;7.53;;;10.60;1.00;;;;;;5189352;27;20443;-79
2023/12/17 11:21:29;;;;;;;8.90;8.10;;;10.70;1.00;;;;;;5192051;27;21085;-78
2023/12/17 11:23:58;;;;;;;9.33;8.50;;;10.70;1.00;;;;;;5192024;27;20479;-79
2023/12/17 11:26:25;;;;;;;10.30;9.07;;;10.80;1.00;;;;;;5191334;27;21080;-81
2023/12/17 11:28:52;;;;;;;8.93;7.00;;;10.80;1.00;;;;;;5190717;27;20447;-80
2023/12/17 11:31:20;;;;;;;9.70;8.70;;;11.00;1.00;;;;;;5189891;27;20427;-79
2023/12/17 11:33:48;;;;;;;10.03;8.00;;;11.00;1.00;;;;;;5184363;27;20521;-80
2023/12/17 11:36:17;;;;;;;8.40;7.60;;;11.00;1.00;;;;;;5195882;27;20832;-83
2023/12/17 11:38:44;;;;;;;9.00;8.10;;;11.00;1.00;;;;;;5190707;27;20488;-79
2023/12/17 11:41:12;;;;;;;9.30;8.40;;;11.00;1.00;;;;;;5188267;27;20435;-80
2023/12/17 11:43:42;;;;;;;9.37;8.43;;;10.90;1.00;;;;;;5171341;27;20459;-80
2023/12/17 11:46:13;;;;;;;8.40;7.47;;;11.00;1.00;;;;;;5177662;27;20501;-81
2023/12/17 11:48:43;;;;;;;8.40;7.10;;;11.00;1.00;;;;;;5179725;27;20451;-80
2023/12/17 11:51:10;;;;;;;9.30;8.30;;;10.90;1.00;;;;;;5190767;27;20545;-80
2023/12/17 11:53:43;;;;;;;7.40;6.80;;;11.00;1.00;;;;;;5192858;27;20538;-80
2023/12/17 11:56:10;;;;;;;7.57;6.87;;;11.10;1.00;;;;;;5193332;27;20442;-79
2023/12/17 11:58:47;;;;;;;8.10;7.17;;;11.00;1.00;;;;;;5188414;27;20450;-80
2023/12/17 12:01:15;;;;;;;9.07;7.27;;;11.10;1.00;;;;;;5197211;27;20458;-80
2023/12/17 12:03:43;;;;;;;9.10;8.13;;;11.30;1.00;;;;;;5189682;27;20480;-80
2023/12/17 12:06:11;;;;;;;8.40;7.60;;;11.20;1.00;;;;;;5189929;27;20538;-79
2023/12/17 12:08:42;;;;;;;8.07;7.37;;;11.20;1.00;;;;;;5188788;27;21369;-79
2023/12/17 12:11:10;;;;;;;7.93;7.13;;;11.20;1.00;;;;;;5186839;27;20499;-79
2023/12/17 12:13:40;;;;;;;7.93;7.23;;;11.10;1.00;;;;;;5185830;27;20455;-80
2023/12/17 12:16:09;;;;;;;7.60;6.90;;;11.10;1.00;;;;;;5186807;27;20443;-80
2023/12/17 12:18:36;;;;;;;7.83;7.03;;;11.10;1.00;;;;;;5187016;27;20461;-79
2023/12/17 12:21:15;;;;;;;9.13;7.30;;;11.20;1.00;;;;;;5191702;27;20976;-80
2023/12/17 12:23:49;;;;;;;7.60;6.90;;;11.40;1.00;;;;;;5187722;27;20466;-80
2023/12/17 12:26:17;;;;;;;9.10;7.70;;;11.40;1.00;;;;;;5186210;27;20506;-79
2023/12/17 12:28:50;;;;;;;8.63;7.83;;;11.40;1.00;;;;;;5187545;27;20453;-79
2023/12/17 12:31:17;;;;;;;8.37;7.57;;;11.30;1.00;;;;;;5171617;27;20446;-80
2023/12/17 12:33:53;;;;;;;8.20;7.40;;;11.40;1.00;;;;;;5184449;27;20611;-80
2023/12/17 12:36:20;;;;;;;8.13;7.30;;;11.40;1.00;;;;;;5189587;27;20829;-80
2023/12/17 12:39:02;;;;;;;14.30;7.70;;;11.40;1.00;;;;;;5184595;27;20527;-79
2023/12/17 12:41:29;;;;;;;7.97;7.27;;;11.60;1.00;;;;;;5191180;27;20486;-79
2023/12/17 12:43:57;;;;;;;8.10;7.40;;;12.30;1.00;;;;;;5188849;27;20463;-82
2023/12/17 12:46:24;;;;;;;9.60;8.60;;;13.10;1.00;;;;;;5188866;27;20447;-80
2023/12/17 12:48:55;;;;;;;8.43;7.63;;;14.00;1.00;;;;;;5183958;27;20454;-79
2023/12/17 12:51:26;;;;;;;7.07;6.37;;;14.50;1.00;;;;;;5187940;27;20874;-79